Latest Weather Observations for Minlaton Airport

IDS60801

Issued at 4:31 pm CST Saturday 30 July 2016 (issued every 30 minutes, with the page automatically refreshed every 10 minutes)

About weather observations | Map of weather stations | Latest weather observations for SA | Other Formats
Station Details ID: 022031 Name: MINLATON AERO Lat: -34.75 Lon: 137.53 Height: 32.0 m
Data from the previous 72 hours. | See also: Recent months at Minlaton Airport
Date/Time
CST
Temp
°C
App
Temp
°C
Dew
Point
°C
Rel
Hum
%
Delta-T
°C
Wind Press
QNH
hPa
Press
MSL
hPa
Rain since
9am
mm
Dir  Spd
km/h
Gust
km/h
Spd
kts
Gust
kts
30/04:30pm 13.3 8.4 10.1 81 1.7 NNW 26 32 14 17 1014.3 1014.3 0.2
30/04:00pm 14.0 8.6 9.6 75 2.3 NNW 28 35 15 19 1013.4 1013.4 0.0
30/03:30pm 15.0 9.6 9.4 69 2.9 NNW 28 35 15 19 1013.1 1013.1 0.0
30/03:00pm 14.8 8.5 9.0 68 3.0 N 32 41 17 22 1013.2 1013.2 0.0
30/02:30pm 15.2 9.2 8.7 65 3.3 N 30 39 16 21 1012.9 1012.9 0.0
30/02:00pm 15.3 8.0 8.8 65 3.3 N 37 48 20 26 1012.3 1012.3 0.0
30/01:30pm 14.9 7.1 8.2 64 3.4 N 39 50 21 27 1012.8 1012.8 0.0
30/01:00pm 15.3 6.9 7.3 59 4.0 N 41 52 22 28 1013.5 1013.5 0.0
30/12:30pm 15.0 7.4 7.5 61 3.7 N 37 48 20 26 1014.4 1014.4 0.0
30/12:00pm 15.0 6.3 7.5 61 3.7 N 43 54 23 29 1014.7 1014.7 0.0
30/11:30am 16.1 7.6 8.6 61 3.8 N 43 56 23 30 1014.9 1014.9 0.0
30/11:29am 16.0 7.4 8.0 59 4.0 N 43 61 23 33 1014.9 1014.9 0.0
30/11:00am 15.0 6.8 8.3 64 3.4 N 41 56 22 30 1015.1 1015.1 0.0
30/10:30am 15.1 7.0 8.6 65 3.3 N 41 54 22 29 1015.8 1015.8 0.0
30/10:00am 13.7 6.2 7.9 68 2.9 N 37 48 20 26 1016.0 1016.0 0.0
30/09:30am 12.6 5.0 7.7 72 2.4 N 37 44 20 24 1016.3 1016.3 0.0
30/09:00am 11.9 5.2 7.2 73 2.3 N 32 39 17 21 1016.6 1016.6 0.0
30/08:30am 11.5 5.1 7.0 74 2.1 N 30 35 16 19 1016.5 1016.5 0.0
30/08:00am 11.1 4.6 6.6 74 2.1 N 30 37 16 20 1016.7 1016.7 0.0
30/07:30am 10.2 4.1 6.5 78 1.7 N 28 35 15 19 1016.9 1016.9 0.0
30/07:00am 9.5 3.4 6.4 81 1.4 N 28 35 15 19 1017.0 1017.0 0.0
30/06:30am 9.1 3.3 6.4 83 1.2 N 26 32 14 17 1017.2 1017.2 0.0
30/06:00am 9.2 3.7 6.1 81 1.4 N 24 28 13 15 1017.3 1017.3 0.0
30/05:30am 9.8 4.4 6.3 79 1.6 N 24 30 13 16 1017.3 1017.3 0.0
30/05:00am 10.3 5.3 6.6 78 1.7 N 22 28 12 15 1017.6 1017.6 0.0
30/04:30am 10.4 5.5 6.7 78 1.7 N 22 30 12 16 1018.0 1018.0 0.0
30/04:00am 10.3 5.3 6.6 78 1.7 N 22 28 12 15 1018.1 1018.1 0.0
30/03:30am 10.2 5.3 6.7 79 1.6 NNE 22 26 12 14 1018.2 1018.2 0.0
30/03:00am 10.6 5.3 6.9 78 1.7 NNE 24 28 13 15 1018.6 1018.6 0.0
30/02:30am 10.5 5.2 6.6 77 1.8 NNE 24 28 13 15 1019.1 1019.2 0.0
30/02:00am 10.4 5.9 6.9 79 1.7 N 20 26 11 14 1019.6 1019.7 0.0
30/01:30am 10.3 5.8 7.0 80 1.6 NNE 20 24 11 13 1019.8 1019.9 0.0
30/01:00am 10.7 6.2 7.0 78 1.8 NNE 20 24 11 13 1020.1 1020.2 0.0
30/12:30am 11.0 6.1 7.1 77 1.9 NNE 22 28 12 15 1020.3 1020.4 0.0
30/12:00am 10.9 6.1 7.4 79 1.7 NNE 22 26 12 14 1020.7 1020.8 0.0
 
Date/Time
CST
Temp
°C
App
Temp
°C
Dew
Point
°C
Rel
Hum
%
Delta-T
°C
Wind Press
QNH
hPa
Press
MSL
hPa
Rain since
9am
mm
Dir  Spd
km/h
Gust
km/h
Spd
kts
Gust
kts
29/11:30pm 9.4 5.2 7.3 87 1.0 NNE 19 22 10 12 1021.1 1021.2 0.0
29/11:00pm 9.6 5.7 6.9 83 1.3 NNE 17 19 9 10 1021.5 1021.6 0.0
29/10:30pm 10.4 6.3 7.8 84 1.2 NE 19 20 10 11 1021.5 1021.6 0.0
29/10:00pm 10.8 6.8 8.4 85 1.2 NNE 19 20 10 11 1021.9 1022.0 0.0
29/09:30pm 10.7 7.2 8.6 87 1.0 NE 17 19 9 10 1021.9 1022.0 0.0
29/09:00pm 10.1 6.8 8.2 88 0.9 NE 15 17 8 9 1021.8 1021.9 0.0
29/08:30pm 10.0 6.8 8.3 89 0.8 NE 15 17 8 9 1022.0 1022.1 0.0
29/08:00pm 9.9 7.1 8.7 92 0.6 ENE 13 13 7 7 1022.1 1022.2 0.0
29/07:30pm 9.7 7.6 8.3 91 0.7 ENE 9 9 5 5 1022.1 1022.2 0.0
29/07:00pm 10.2 8.2 8.8 91 0.7 NNE 9 9 5 5 1022.1 1022.2 0.0
29/06:30pm 10.5 9.1 8.9 90 0.8 N 6 9 3 5 1022.1 1022.2 0.0
29/06:00pm 11.1 9.9 9.5 90 0.8 NNW 6 7 3 4 1022.1 1022.2 0.0
29/05:30pm 11.0 9.2 9.3 89 0.8 NNW 9 11 5 6 1021.8 1021.9 0.0
29/05:00pm 11.5 9.4 9.6 88 1.0 N 11 13 6 7 1021.8 1021.9 0.0
29/04:30pm 13.3 11.2 9.7 79 1.8 NNW 11 13 6 7 1022.0 1022.1 0.0
29/04:00pm 13.8 11.6 9.3 74 2.3 NW 11 15 6 8 1022.1 1022.2 0.0
29/03:30pm 14.2 11.7 9.8 75 2.3 NW 13 17 7 9 1022.2 1022.3 0.0
29/03:00pm 14.5 12.1 10.1 75 2.3 NW 13 17 7 9 1022.5 1022.6 0.0
29/02:30pm 14.1 10.7 9.3 73 2.4 NW 17 20 9 11 1022.8 1022.9 0.0
29/02:00pm 14.9 12.5 9.9 72 2.6 NW 13 17 7 9 1022.9 1023.0 0.0
29/01:30pm 14.7 11.9 9.9 73 2.5 NW 15 19 8 10 1023.2 1023.3 0.0
29/01:00pm 14.6 11.7 9.8 73 2.5 NW 15 20 8 11 1023.7 1023.8 0.0
29/12:30pm 14.5 11.3 11.3 81 1.7 NNW 19 24 10 13 1024.0 1024.1 0.0
29/12:00pm 14.2 11.0 11.2 82 1.6 NNW 19 24 10 13 1024.8 1024.9 0.0
29/11:30am 13.2 9.6 10.7 85 1.3 NNW 20 26 11 14 1024.8 1024.9 0.0
29/11:00am 13.2 9.8 11.3 88 1.0 N 20 24 11 13 1025.0 1025.1 0.0
29/10:30am 12.2 9.1 10.4 89 0.9 N 17 20 9 11 1025.1 1025.2 0.0
29/10:00am 11.5 8.3 9.9 90 0.8 N 17 20 9 11 1025.1 1025.2 0.0
29/09:30am 10.9 8.4 9.8 93 0.6 N 13 17 7 9 1025.3 1025.4 0.0
29/09:00am 9.7 7.3 8.6 93 0.5 NNE 11 13 6 7 1025.4 1025.5 0.6
29/08:30am 8.3 5.6 7.4 94 0.4 NNE 11 15 6 8 1025.2 1025.3 0.6
29/08:00am 7.6 4.3 6.5 93 0.5 N 13 13 7 7 1025.0 1025.1 0.6
29/07:30am 7.4 4.8 6.3 93 0.5 N 9 15 5 8 1025.0 1025.1 0.6
29/07:00am 7.5 2.9 6.4 93 0.5 N 20 24 11 13 1024.3 1024.4 0.6
29/06:30am 8.1 4.2 7.2 94 0.4 N 17 20 9 11 1024.5 1024.6 0.6
29/06:00am 7.3 2.6 6.2 93 0.5 N 20 24 11 13 1024.0 1024.1 0.6
29/05:30am 8.4 4.0 7.2 92 0.6 N 20 26 11 14 1024.4 1024.5 0.6
29/05:00am 8.7 4.9 7.5 92 0.6 N 17 20 9 11 1024.9 1025.0 0.6
29/04:30am 8.8 5.0 7.7 93 0.5 N 17 20 9 11 1024.8 1024.9 0.6
29/04:00am 9.5 7.0 8.4 93 0.5 N 11 15 6 8 1025.1 1025.2 0.6
29/03:30am 10.3 7.3 9.2 93 0.5 NW 15 17 8 9 1024.8 1024.9 0.6
29/03:00am 10.5 7.9 9.4 93 0.5 NW 13 15 7 8 1024.8 1024.9 0.6
29/02:30am 10.8 8.0 9.9 94 0.5 NW 15 20 8 11 1025.1 1025.2 0.6
29/02:00am 10.8 7.2 9.9 94 0.5 NW 19 22 10 12 1025.3 1025.4 0.6
29/01:30am 10.5 7.2 9.6 94 0.4 NW 17 20 9 11 1025.5 1025.6 0.6
29/01:00am 9.7 6.6 8.8 94 0.4 NW 15 17 8 9 1025.4 1025.5 0.6
29/12:30am 10.7 7.1 9.8 94 0.5 WNW 19 24 10 13 1025.9 1026.0 0.6
29/12:00am 10.4 7.5 9.6 95 0.4 NW 15 17 8 9 1026.3 1026.4 0.6
 
Date/Time
CST
Temp
°C
App
Temp
°C
Dew
Point
°C
Rel
Hum
%
Delta-T
°C
Wind Press
QNH
hPa
Press
MSL
hPa
Rain since
9am
mm
Dir  Spd
km/h
Gust
km/h
Spd
kts
Gust
kts
28/11:30pm 10.5 6.7 9.9 96 0.3 NW 20 26 11 14 1026.3 1026.4 0.6
28/11:00pm 10.9 6.9 10.3 96 0.3 NW 22 30 12 16 1026.7 1026.8 0.4
28/10:30pm 10.4 7.5 9.8 96 0.3 N 15 19 8 10 1026.1 1026.2 0.2
28/10:00pm 10.3 7.4 9.5 95 0.4 N 15 17 8 9 1026.3 1026.4 0.0
28/09:30pm 10.3 7.0 9.5 95 0.4 N 17 20 9 11 1026.6 1026.7 0.0
28/09:00pm 10.6 8.1 9.8 95 0.4 NNW 13 17 7 9 1026.9 1027.0 0.0
28/08:30pm 10.8 7.2 10.0 95 0.4 NNW 19 26 10 14 1027.0 1027.1 0.0
28/08:00pm 10.8 8.4 9.9 94 0.5 NNW 13 17 7 9 1027.1 1027.2 0.0
28/07:30pm 10.8 7.6 9.9 94 0.5 NNW 17 20 9 11 1027.2 1027.3 0.0
28/07:00pm 10.8 8.7 9.7 93 0.6 NW 11 15 6 8 1027.4 1027.5 0.0
28/06:30pm 10.8 8.7 9.7 93 0.6 NW 11 13 6 7 1027.2 1027.3 0.0
28/06:00pm 10.5 7.9 9.3 92 0.6 NW 13 17 7 9 1027.1 1027.2 0.0
28/05:30pm 11.1 7.2 9.5 90 0.8 NW 20 24 11 13 1027.1 1027.2 0.0
28/05:00pm 11.2 9.5 9.8 91 0.7 NNW 9 13 5 7 1027.1 1027.2 0.0
28/04:30pm 11.2 8.2 9.3 88 0.9 WNW 15 19 8 10 1027.2 1027.3 0.0
28/04:00pm 11.8 8.7 8.8 82 1.5 NW 15 19 8 10 1027.2 1027.3 0.0
28/03:30pm 11.7 7.5 9.6 87 1.1 NNW 22 28 12 15 1027.2 1027.3 0.0
28/03:00pm 12.1 6.8 10.0 87 1.1 NW 28 35 15 19 1027.2 1027.3 0.0
28/02:30pm 12.7 7.7 9.7 82 1.5 NW 26 35 14 19 1027.2 1027.3 0.0
28/02:00pm 12.7 7.0 9.9 83 1.4 NW 30 35 16 19 1027.3 1027.4 0.0
28/01:30pm 13.2 8.0 10.2 82 1.5 NW 28 37 15 20 1027.6 1027.7 0.0
28/01:00pm 13.4 8.0 9.6 78 1.9 NW 28 35 15 19 1027.8 1027.9 0.0
28/12:30pm 13.3 7.9 9.4 77 2.0 NW 28 33 15 18 1028.0 1028.1 0.0
28/12:00pm 14.0 9.5 10.0 77 2.1 NW 24 32 13 17 1028.2 1028.3 0.0
28/11:30am 13.2 8.5 9.1 76 2.1 NW 24 33 13 18 1028.7 1028.7 0.0
28/11:00am 13.2 8.6 9.8 80 1.7 NW 24 28 13 15 1029.2 1029.2 0.0
28/10:30am 12.8 8.6 9.8 82 1.5 NW 22 28 12 15 1029.3 1029.3 0.0
28/10:00am 12.5 8.4 10.2 86 1.2 NW 22 30 12 16 1029.2 1029.2 0.0
28/09:30am 12.1 9.4 10.3 89 0.9 NNW 15 19 8 10 1029.4 1029.4 0.0
28/09:00am 11.9 9.2 10.3 90 0.8 NNW 15 17 8 9 1029.2 1029.2 0.2
28/08:30am 11.5 9.0 9.6 88 1.0 W 13 19 7 10 1029.1 1029.1 0.2
28/08:00am 10.8 8.7 9.7 93 0.6 W 11 15 6 8 1029.0 1029.0 0.2
28/07:30am 10.2 8.4 9.3 94 0.4 NW 9 11 5 6 1028.8 1028.8 0.2
28/07:00am 10.5 7.2 9.6 94 0.5 WSW 17 24 9 13 1028.4 1028.4 0.2
28/06:30am 10.5 7.6 9.6 94 0.4 SW 15 17 8 9 1027.9 1028.0 0.2
28/06:00am 10.4 7.4 9.2 92 0.6 NW 15 17 8 9 1027.5 1027.6 0.2
28/05:30am 10.5 7.9 9.4 93 0.5 SW 13 17 7 9 1027.4 1027.5 0.2
28/05:00am 10.0 8.4 8.9 93 0.5 WNW 7 9 4 5 1027.4 1027.5 0.2
28/04:30am 10.5 7.9 9.4 93 0.5 WSW 13 20 7 11 1027.5 1027.6 0.0
28/04:00am 10.6 7.6 9.4 92 0.6 WSW 15 17 8 9 1027.4 1027.5 0.0
28/03:30am 10.1 8.1 8.7 91 0.7 NW 9 11 5 6 1027.5 1027.6 0.0
28/03:00am 10.5 7.4 8.9 90 0.8 WSW 15 20 8 11 1027.8 1027.9 0.0
28/02:30am 10.6 7.0 8.5 87 1.0 WNW 17 20 9 11 1027.7 1027.8 0.0
28/02:00am 11.4 7.4 9.0 85 1.2 WNW 20 28 11 15 1027.8 1027.9 0.0
28/01:30am 11.4 7.7 7.9 79 1.7 W 17 20 9 11 1027.7 1027.8 0.0
28/01:00am 11.4 7.7 8.1 80 1.6 W 17 20 9 11 1027.4 1027.5 0.0
28/12:30am 11.3 8.2 8.9 85 1.2 W 15 17 8 9 1027.2 1027.3 0.0
28/12:00am 11.2 8.0 8.6 84 1.3 W 15 17 8 9 1027.3 1027.4 0.0
 
Date/Time
CST
Temp
°C
App
Temp
°C
Dew
Point
°C
Rel
Hum
%
Delta-T
°C
Wind Press
QNH
hPa
Press
MSL
hPa
Rain since
9am
mm
Dir  Spd
km/h
Gust
km/h
Spd
kts
Gust
kts
27/11:30pm 11.1 7.4 8.1 82 1.5 W 17 20 9 11 1027.4 1027.5 0.0
27/11:00pm 11.5 6.7 8.7 83 1.4 W 24 30 13 16 1027.5 1027.6 0.0
27/10:30pm 11.2 7.9 8.1 81 1.5 WNW 15 17 8 9 1027.5 1027.6 0.0
27/10:00pm 11.6 7.2 7.5 76 2.0 W 20 24 11 13 1027.7 1027.8 0.0
27/09:30pm 11.4 7.5 7.3 76 2.0 W 17 26 9 14 1027.6 1027.7 0.0
27/09:00pm 11.5 7.2 7.2 75 2.0 W 19 22 10 12 1027.6 1027.7 0.0
27/08:30pm 11.6 7.0 6.7 72 2.3 W 20 28 11 15 1027.6 1027.7 0.0
27/08:00pm 11.7 7.5 8.2 79 1.7 W 20 28 11 15 1027.5 1027.6 0.0
27/07:30pm 11.3 7.8 7.0 75 2.0 W 15 19 8 10 1027.4 1027.5 0.0
27/07:00pm 11.5 7.3 8.4 81 1.5 W 20 24 11 13 1027.2 1027.3 0.0
27/06:30pm 11.4 8.2 8.4 82 1.5 W 15 19 8 10 1027.0 1027.1 0.0
27/06:00pm 11.1 8.2 8.3 83 1.4 WNW 13 15 7 8 1026.7 1026.8 0.0
27/05:30pm 11.4 7.4 8.3 81 1.5 WNW 19 22 10 12 1026.4 1026.5 0.0
27/05:00pm 11.8 8.0 7.7 76 2.0 W 17 20 9 11 1026.3 1026.4 0.0

Other Formats:

Comma delimited format used in spreadsheet applications
http://www.bom.gov.au/fwo/IDS60801/IDS60801.95659.axf

JavaScript Object Notation format (JSON) in row-major order
http://www.bom.gov.au/fwo/IDS60801/IDS60801.95659.json